Time;durP1;ratioP1;P1;durP2;ratioP2;P2;SDS_P1;SDS_P2;PMS_P1;PMS_P2;Temp;Humidity;BMP_temperature;BMP_pressure;BME280_temperature;BME280_humidity;BME280_pressure;Samples;Min_cycle;Max_cycle;Signal;HPM_P1;HPM_P2
2022/03/22 00:00:32;;;;;;;50.28;39.38;;;;;;;;;;4971078;28;20055;-70
2022/03/22 00:02:59;;;;;;;51.03;38.70;;;;;;;;;;4976971;28;20513;-70
2022/03/22 00:05:25;;;;;;;46.65;36.63;;;;;;;;;;4966303;28;20093;-70
2022/03/22 00:07:52;;;;;;;46.40;37.30;;;;;;;;;;4976515;28;20042;-70
2022/03/22 00:10:18;;;;;;;50.30;40.13;;;;;;;;;;4975968;28;20398;-70
2022/03/22 00:12:44;;;;;;;48.13;36.00;;;;;;;;;;4975678;28;20137;-70
2022/03/22 00:15:11;;;;;;;52.38;38.90;;;;;;;;;;4975820;28;20054;-69
2022/03/22 00:17:38;;;;;;;50.28;37.88;;;;;;;;;;4976166;28;20054;-70
2022/03/22 00:20:05;;;;;;;50.35;37.88;;;;;;;;;;4973059;28;20484;-69
2022/03/22 00:22:31;;;;;;;51.90;39.42;;;;;;;;;;4971876;28;20039;-69
2022/03/22 00:24:57;;;;;;;55.83;39.95;;;;;;;;;;4974980;28;20043;-69
2022/03/22 00:27:23;;;;;;;53.13;39.60;;;;;;;;;;4973468;28;20522;-69
2022/03/22 00:29:49;;;;;;;52.20;38.15;;;;;;;;;;4974801;28;20043;-70
2022/03/22 00:32:15;;;;;;;52.03;40.08;;;;;;;;;;4973716;28;20065;-70
2022/03/22 00:34:44;;;;;;;51.17;39.35;;;;;;;;;;4974592;28;20043;-70
2022/03/22 00:37:14;;;;;;;51.30;39.38;;;;;;;;;;4975377;28;20416;-70
2022/03/22 00:39:41;;;;;;;57.72;38.50;;;;;;;;;;4983000;28;20046;-70
2022/03/22 00:42:07;;;;;;;47.53;37.70;;;;;;;;;;4975082;28;20113;-69
2022/03/22 00:44:35;;;;;;;52.53;37.85;;;;;;;;;;4975406;28;20039;-70
2022/03/22 00:47:02;;;;;;;47.85;36.58;;;;;;;;;;4975399;28;20433;-70
2022/03/22 00:49:28;;;;;;;51.65;38.75;;;;;;;;;;4975416;28;20057;-70
2022/03/22 00:51:54;;;;;;;52.70;38.28;;;;;;;;;;4971442;28;20039;-69
2022/03/22 00:54:20;;;;;;;50.65;37.90;;;;;;;;;;4968984;28;20413;-70
2022/03/22 00:56:46;;;;;;;53.60;37.42;;;;;;;;;;4975106;28;20046;-69
2022/03/22 01:02:16;;;;;;;49.60;37.45;;;;;;;;;;4914497;29;20075;-70
2022/03/22 01:04:43;;;;;;;50.85;37.53;;;;;;;;;;4900194;29;20474;-70
2022/03/22 01:07:09;;;;;;;49.83;36.90;;;;;;;;;;4915552;29;20091;-70
2022/03/22 01:09:35;;;;;;;47.83;37.60;;;;;;;;;;4914981;29;20048;-70
2022/03/22 01:12:01;;;;;;;48.05;37.28;;;;;;;;;;4914417;29;20048;-70
2022/03/22 01:14:27;;;;;;;47.58;37.78;;;;;;;;;;4913011;29;20052;-70
2022/03/22 01:16:54;;;;;;;45.90;36.17;;;;;;;;;;4913506;29;20483;-70
2022/03/22 01:19:21;;;;;;;48.55;36.78;;;;;;;;;;4910804;29;20477;-70
2022/03/22 01:21:47;;;;;;;47.45;35.17;;;;;;;;;;4905018;29;20546;-71
2022/03/22 01:24:13;;;;;;;44.08;35.13;;;;;;;;;;4914150;29;20044;-70
2022/03/22 01:26:40;;;;;;;46.38;35.88;;;;;;;;;;4909147;29;20063;-70
2022/03/22 01:29:06;;;;;;;49.53;37.30;;;;;;;;;;4899725;29;20056;-70
2022/03/22 01:31:34;;;;;;;45.28;35.25;;;;;;;;;;4899810;29;20087;-69
2022/03/22 01:34:00;;;;;;;48.72;36.78;;;;;;;;;;4967141;28;20532;-70
2022/03/22 01:36:28;;;;;;;49.35;36.03;;;;;;;;;;4974348;28;20046;-70
2022/03/22 01:38:54;;;;;;;48.35;37.65;;;;;;;;;;4974567;28;20178;-69
2022/03/22 01:41:20;;;;;;;48.08;36.22;;;;;;;;;;4974957;28;20133;-69
2022/03/22 01:43:46;;;;;;;47.88;35.65;;;;;;;;;;4974433;28;20050;-69
2022/03/22 01:46:13;;;;;;;48.40;36.53;;;;;;;;;;4973242;28;20197;-69
2022/03/22 01:48:40;;;;;;;47.58;35.08;;;;;;;;;;4972957;28;20380;-69
2022/03/22 01:51:06;;;;;;;50.35;37.83;;;;;;;;;;4971413;28;20043;-69
2022/03/22 01:53:36;;;;;;;49.83;38.90;;;;;;;;;;4972770;28;20057;-70
2022/03/22 01:56:02;;;;;;;49.50;38.10;;;;;;;;;;4973862;28;20051;-69
2022/03/22 01:58:27;;;;;;;48.65;36.08;;;;;;;;;;4973955;28;20057;-70
2022/03/22 02:05:51;;;;;;;48.10;36.70;;;;;;;;;;4973270;28;20043;-69
2022/03/22 02:06:33;;;;;;;46.87;34.47;;;;;;;;;;4973910;28;20050;-70
2022/03/22 02:09:00;;;;;;;46.40;37.10;;;;;;;;;;4974245;28;20298;-70
2022/03/22 02:11:26;;;;;;;44.22;35.17;;;;;;;;;;4976382;28;20042;-70
2022/03/22 02:13:52;;;;;;;49.55;37.00;;;;;;;;;;4972835;28;20053;-70
2022/03/22 02:16:18;;;;;;;49.63;37.70;;;;;;;;;;4974079;28;20169;-69
2022/03/22 02:18:45;;;;;;;49.33;37.13;;;;;;;;;;4972255;28;20121;-69
2022/03/22 02:21:14;;;;;;;45.72;36.78;;;;;;;;;;4971371;28;20054;-69
2022/03/22 02:23:53;;;;;;;49.58;36.70;;;;;;;;;;4970605;28;20050;-69
2022/03/22 02:26:21;;;;;;;46.78;36.10;;;;;;;;;;4970352;28;20062;-69
2022/03/22 02:28:47;;;;;;;50.90;37.67;;;;;;;;;;4973572;28;20113;-70
2022/03/22 02:31:14;;;;;;;45.17;37.20;;;;;;;;;;4973759;28;20049;-69
2022/03/22 02:33:43;;;;;;;48.42;34.95;;;;;;;;;;4973332;28;20046;-69
2022/03/22 02:36:10;;;;;;;49.70;36.58;;;;;;;;;;4973676;28;20039;-69
2022/03/22 02:38:36;;;;;;;47.45;36.20;;;;;;;;;;4973202;28;20039;-70
2022/03/22 02:41:02;;;;;;;51.83;38.13;;;;;;;;;;4973245;28;21672;-70
2022/03/22 02:43:28;;;;;;;47.97;37.78;;;;;;;;;;4973430;28;20043;-70
2022/03/22 02:45:54;;;;;;;49.50;36.88;;;;;;;;;;4972303;28;20041;-70
2022/03/22 02:48:20;;;;;;;50.85;36.75;;;;;;;;;;4971644;28;20047;-70
2022/03/22 02:50:46;;;;;;;46.35;36.70;;;;;;;;;;4971612;28;20046;-70
2022/03/22 02:53:12;;;;;;;48.72;35.20;;;;;;;;;;4970985;28;20066;-70
2022/03/22 02:55:38;;;;;;;44.65;34.75;;;;;;;;;;4971422;28;20102;-70
2022/03/22 02:58:04;;;;;;;47.38;35.20;;;;;;;;;;4971518;28;20375;-70
2022/03/22 03:00:30;;;;;;;45.40;36.05;;;;;;;;;;4967497;28;20054;-70
2022/03/22 03:02:56;;;;;;;45.15;35.58;;;;;;;;;;4973425;28;20050;-70
2022/03/22 03:05:23;;;;;;;48.20;35.83;;;;;;;;;;4972538;28;20129;-70
2022/03/22 03:07:50;;;;;;;49.95;35.00;;;;;;;;;;4972841;28;20046;-70
2022/03/22 03:10:16;;;;;;;47.40;36.20;;;;;;;;;;4973138;28;20043;-70
2022/03/22 03:12:42;;;;;;;47.67;36.28;;;;;;;;;;4973792;28;20053;-70
2022/03/22 03:15:09;;;;;;;45.08;35.05;;;;;;;;;;4972109;28;20411;-70
2022/03/22 03:17:35;;;;;;;44.22;35.30;;;;;;;;;;4980540;28;20751;-70
2022/03/22 03:20:01;;;;;;;49.75;35.25;;;;;;;;;;4969365;28;20479;-70
2022/03/22 03:22:27;;;;;;;46.42;34.97;;;;;;;;;;4968727;28;20042;-70
2022/03/22 03:24:53;;;;;;;50.63;35.60;;;;;;;;;;4971993;28;20042;-69
2022/03/22 03:27:20;;;;;;;47.33;35.72;;;;;;;;;;4973358;28;20046;-69
2022/03/22 03:29:46;;;;;;;46.50;34.20;;;;;;;;;;4971934;28;20802;-71
2022/03/22 03:32:12;;;;;;;47.10;34.40;;;;;;;;;;4973162;28;20102;-70
2022/03/22 03:34:38;;;;;;;44.53;34.65;;;;;;;;;;4973118;28;20514;-70
2022/03/22 03:37:04;;;;;;;46.90;33.58;;;;;;;;;;4976651;28;20046;-70
2022/03/22 03:39:30;;;;;;;45.60;35.55;;;;;;;;;;4976665;28;20537;-70
2022/03/22 03:41:57;;;;;;;50.08;35.17;;;;;;;;;;4976997;28;20078;-70
2022/03/22 03:47:09;;;;;;;43.65;34.25;;;;;;;;;;4974497;28;20047;-70
2022/03/22 03:49:38;;;;;;;45.08;34.15;;;;;;;;;;4963765;28;20446;-70
2022/03/22 03:52:06;;;;;;;44.08;35.10;;;;;;;;;;4975223;28;20050;-69
2022/03/22 03:54:32;;;;;;;48.63;35.42;;;;;;;;;;4970138;28;20055;-69
2022/03/22 03:56:58;;;;;;;45.03;35.92;;;;;;;;;;4974062;28;20196;-69
2022/03/22 03:59:24;;;;;;;45.75;35.92;;;;;;;;;;4976034;28;20477;-69
2022/03/22 04:01:50;;;;;;;48.10;35.65;;;;;;;;;;4973125;28;20127;-70
2022/03/22 04:04:16;;;;;;;44.35;35.85;;;;;;;;;;4975952;28;20046;-70
2022/03/22 04:06:42;;;;;;;45.63;35.15;;;;;;;;;;4976678;28;20482;-69
2022/03/22 04:09:08;;;;;;;47.17;36.42;;;;;;;;;;4974695;28;20050;-70
2022/03/22 04:11:34;;;;;;;47.80;35.53;;;;;;;;;;4976334;28;20078;-69
2022/03/22 04:14:00;;;;;;;48.00;35.05;;;;;;;;;;4976197;28;20042;-70
2022/03/22 04:16:26;;;;;;;47.17;35.67;;;;;;;;;;4975613;28;20051;-69
2022/03/22 04:18:52;;;;;;;48.45;36.50;;;;;;;;;;4971256;28;20035;-70
2022/03/22 04:21:18;;;;;;;46.88;36.17;;;;;;;;;;4968031;28;20129;-70
2022/03/22 04:23:44;;;;;;;45.88;35.42;;;;;;;;;;4976136;28;20110;-69
2022/03/22 04:26:10;;;;;;;46.25;35.78;;;;;;;;;;4974873;28;20050;-69
2022/03/22 04:34:05;;;;;;;48.05;34.88;;;;;;;;;;4976264;28;20147;-69
2022/03/22 04:36:31;;;;;;;47.00;36.25;;;;;;;;;;4965332;28;20054;-69
2022/03/22 04:38:57;;;;;;;49.42;35.50;;;;;;;;;;4975566;28;20043;-69
2022/03/22 04:41:23;;;;;;;47.80;36.40;;;;;;;;;;4975006;28;20089;-69
2022/03/22 04:43:51;;;;;;;47.35;35.72;;;;;;;;;;4972002;28;20050;-69
2022/03/22 04:46:18;;;;;;;44.28;34.50;;;;;;;;;;4972624;28;20126;-70
2022/03/22 04:48:47;;;;;;;46.15;36.35;;;;;;;;;;4975520;28;20065;-69
2022/03/22 04:57:02;;;;;;;47.22;36.63;;;;;;;;;;4921729;29;20060;-70
2022/03/22 04:59:28;;;;;;;48.78;37.25;;;;;;;;;;4933755;29;20055;-70
2022/03/22 05:01:54;;;;;;;44.70;35.45;;;;;;;;;;4916795;29;20055;-70
2022/03/22 05:04:20;;;;;;;47.00;36.97;;;;;;;;;;4921045;29;20168;-69
2022/03/22 05:06:47;;;;;;;47.95;36.42;;;;;;;;;;4934506;29;20042;-69
2022/03/22 05:09:13;;;;;;;51.17;37.38;;;;;;;;;;4925358;29;20545;-70
2022/03/22 05:11:39;;;;;;;50.10;37.40;;;;;;;;;;4933231;29;20043;-70
2022/03/22 05:14:06;;;;;;;52.28;38.08;;;;;;;;;;4934641;29;20039;-70
2022/03/22 05:16:32;;;;;;;51.83;37.78;;;;;;;;;;4933492;29;20052;-71
2022/03/22 05:18:59;;;;;;;49.90;37.10;;;;;;;;;;4934388;29;20079;-71
2022/03/22 05:21:26;;;;;;;49.90;37.22;;;;;;;;;;4930049;29;20397;-71
2022/03/22 05:23:52;;;;;;;50.25;37.47;;;;;;;;;;4934017;29;20084;-71
2022/03/22 05:26:18;;;;;;;46.45;36.83;;;;;;;;;;4932227;29;20039;-71
2022/03/22 05:28:44;;;;;;;45.35;37.05;;;;;;;;;;4962676;28;20059;-68
2022/03/22 05:31:14;;;;;;;44.45;36.03;;;;;;;;;;4971619;28;20038;-70
2022/03/22 05:33:41;;;;;;;51.53;37.17;;;;;;;;;;4974199;28;20051;-69
2022/03/22 05:36:09;;;;;;;48.10;37.17;;;;;;;;;;4974326;28;20401;-69
2022/03/22 05:38:35;;;;;;;47.85;36.85;;;;;;;;;;4970226;28;20457;-69
2022/03/22 05:41:05;;;;;;;49.00;37.25;;;;;;;;;;4972042;28;20047;-69
2022/03/22 05:43:31;;;;;;;49.65;37.22;;;;;;;;;;4974456;28;20114;-70
2022/03/22 05:45:57;;;;;;;48.38;36.80;;;;;;;;;;4969272;28;20070;-69
2022/03/22 05:48:23;;;;;;;46.47;36.22;;;;;;;;;;4974325;28;20042;-69
2022/03/22 05:50:50;;;;;;;47.55;35.55;;;;;;;;;;4972963;28;20047;-69
2022/03/22 05:53:16;;;;;;;49.80;38.15;;;;;;;;;;4973390;28;20110;-69
2022/03/22 05:55:42;;;;;;;51.40;37.78;;;;;;;;;;4972048;28;20395;-69
2022/03/22 05:58:09;;;;;;;46.92;36.55;;;;;;;;;;4972577;28;20407;-69
2022/03/22 06:00:35;;;;;;;51.78;38.05;;;;;;;;;;4973548;28;20558;-70
2022/03/22 06:03:01;;;;;;;47.45;37.97;;;;;;;;;;4968875;28;20494;-70
2022/03/22 06:05:31;;;;;;;51.28;38.80;;;;;;;;;;4972782;28;20054;-70
2022/03/22 06:07:58;;;;;;;50.95;37.22;;;;;;;;;;4983730;28;20041;-70
2022/03/22 06:10:24;;;;;;;47.40;36.78;;;;;;;;;;4973406;28;20070;-70
2022/03/22 06:12:54;;;;;;;50.63;38.13;;;;;;;;;;4974555;28;20086;-70
2022/03/22 06:15:21;;;;;;;49.60;37.72;;;;;;;;;;4973136;28;20078;-70
2022/03/22 06:17:48;;;;;;;52.00;38.03;;;;;;;;;;4971334;28;20194;-70
2022/03/22 06:20:15;;;;;;;56.35;37.80;;;;;;;;;;4973846;28;20047;-68
2022/03/22 06:22:41;;;;;;;45.50;36.22;;;;;;;;;;4968462;28;20054;-69
2022/03/22 06:25:07;;;;;;;49.17;37.15;;;;;;;;;;4968988;28;20051;-70
2022/03/22 06:27:35;;;;;;;45.90;37.90;;;;;;;;;;4972047;28;20050;-69
2022/03/22 06:30:03;;;;;;;46.78;36.30;;;;;;;;;;4969028;28;20047;-70
2022/03/22 06:32:29;;;;;;;47.20;36.28;;;;;;;;;;4968945;28;20047;-69
2022/03/22 06:34:55;;;;;;;46.33;36.38;;;;;;;;;;4971300;28;20042;-70
2022/03/22 06:37:21;;;;;;;47.30;36.83;;;;;;;;;;4971607;28;20056;-70
2022/03/22 06:39:47;;;;;;;48.20;35.83;;;;;;;;;;4993807;28;20082;-70
2022/03/22 06:42:14;;;;;;;41.47;34.97;;;;;;;;;;4978895;28;20054;-70
2022/03/22 06:44:40;;;;;;;47.85;35.08;;;;;;;;;;4973210;28;20046;-70
2022/03/22 06:47:07;;;;;;;44.45;35.25;;;;;;;;;;4972385;28;20050;-70
2022/03/22 06:49:33;;;;;;;43.30;35.28;;;;;;;;;;4973037;28;20043;-70
2022/03/22 06:51:59;;;;;;;45.47;35.35;;;;;;;;;;4960134;28;20050;-70
2022/03/22 06:54:26;;;;;;;44.00;35.67;;;;;;;;;;4956602;28;20058;-70
2022/03/22 06:56:52;;;;;;;47.08;36.85;;;;;;;;;;4973738;28;20085;-70
2022/03/22 06:59:18;;;;;;;46.20;34.85;;;;;;;;;;4973332;28;20051;-70
2022/03/22 07:01:44;;;;;;;49.63;38.38;;;;;;;;;;4971993;28;20054;-70
2022/03/22 07:04:10;;;;;;;43.97;38.08;;;;;;;;;;4971930;28;20047;-70
2022/03/22 07:06:36;;;;;;;43.72;36.17;;;;;;;;;;4948756;28;20051;-70
2022/03/22 07:09:02;;;;;;;48.35;39.42;;;;;;;;;;4961027;28;20445;-70
2022/03/22 07:11:49;;;;;;;45.45;39.17;;;;;;;;;;4973387;28;20101;-70
2022/03/22 07:14:14;;;;;;;48.42;39.88;;;;;;;;;;4962584;28;20047;-70
2022/03/22 07:16:40;;;;;;;48.83;39.83;;;;;;;;;;4972584;28;20410;-70
2022/03/22 07:19:06;;;;;;;46.33;39.05;;;;;;;;;;4973520;28;20047;-70
2022/03/22 07:21:32;;;;;;;46.17;38.17;;;;;;;;;;4972650;28;20050;-70
2022/03/22 07:23:58;;;;;;;47.15;37.92;;;;;;;;;;4973664;28;20042;-70
2022/03/22 07:26:25;;;;;;;41.50;37.00;;;;;;;;;;4973297;28;20035;-70
2022/03/22 07:28:50;;;;;;;41.28;36.60;;;;;;;;;;4972120;28;20417;-70
2022/03/22 07:31:16;;;;;;;46.83;36.03;;;;;;;;;;4973610;28;20051;-70
2022/03/22 07:33:42;;;;;;;41.05;35.47;;;;;;;;;;4973268;28;20035;-70
2022/03/22 07:36:08;;;;;;;44.00;35.92;;;;;;;;;;4972875;28;20066;-70
2022/03/22 07:38:34;;;;;;;45.58;35.30;;;;;;;;;;4972184;28;20409;-70
2022/03/22 07:41:00;;;;;;;39.03;34.38;;;;;;;;;;4973457;28;20102;-70
2022/03/22 07:43:28;;;;;;;37.70;32.67;;;;;;;;;;4973552;28;20077;-70
2022/03/22 07:45:55;;;;;;;37.42;31.42;;;;;;;;;;4972107;28;20550;-70
2022/03/22 07:48:21;;;;;;;38.03;33.03;;;;;;;;;;4973482;28;20050;-70
2022/03/22 07:53:31;;;;;;;36.25;30.52;;;;;;;;;;4954198;29;20047;-70
2022/03/22 07:55:57;;;;;;;33.63;29.55;;;;;;;;;;4967785;28;20570;-70
2022/03/22 07:58:23;;;;;;;36.55;29.38;;;;;;;;;;4972903;28;20130;-70
2022/03/22 08:00:49;;;;;;;36.42;30.17;;;;;;;;;;4973485;28;20089;-70
2022/03/22 08:03:18;;;;;;;34.60;29.63;;;;;;;;;;4973060;28;20125;-70
2022/03/22 08:05:47;;;;;;;35.42;29.50;;;;;;;;;;4972829;28;20054;-70
2022/03/22 08:08:13;;;;;;;34.35;28.45;;;;;;;;;;4973252;28;20043;-70
2022/03/22 08:10:39;;;;;;;31.63;28.23;;;;;;;;;;4971075;28;20078;-70
2022/03/22 08:13:06;;;;;;;33.90;28.80;;;;;;;;;;4983808;28;20090;-70
2022/03/22 08:15:32;;;;;;;32.83;28.98;;;;;;;;;;4973012;28;20063;-70
2022/03/22 08:17:58;;;;;;;31.92;28.52;;;;;;;;;;4975040;28;20074;-70
2022/03/22 08:20:27;;;;;;;38.38;29.00;;;;;;;;;;4973233;28;20085;-70
2022/03/22 08:22:53;;;;;;;37.70;29.00;;;;;;;;;;4976030;28;20047;-70
2022/03/22 08:25:24;;;;;;;33.97;28.63;;;;;;;;;;4974982;28;20050;-69
2022/03/22 08:27:51;;;;;;;36.25;28.73;;;;;;;;;;4973714;28;20516;-69
2022/03/22 08:30:20;;;;;;;33.60;28.58;;;;;;;;;;4973989;28;20058;-70
2022/03/22 08:32:46;;;;;;;33.30;27.88;;;;;;;;;;4974779;28;20058;-70
2022/03/22 08:35:12;;;;;;;34.05;29.45;;;;;;;;;;4976013;28;20046;-70
2022/03/22 08:37:38;;;;;;;35.53;29.50;;;;;;;;;;4976305;28;20054;-70
2022/03/22 08:40:05;;;;;;;39.22;28.63;;;;;;;;;;4976161;28;20442;-70
2022/03/22 08:42:31;;;;;;;33.78;27.98;;;;;;;;;;4975723;28;20561;-69
2022/03/22 08:44:57;;;;;;;36.55;28.35;;;;;;;;;;4979337;28;20123;-70
2022/03/22 08:47:23;;;;;;;35.28;29.20;;;;;;;;;;4975028;28;20130;-70
2022/03/22 08:49:50;;;;;;;32.67;27.35;;;;;;;;;;4973991;28;20055;-70
2022/03/22 08:52:16;;;;;;;35.30;28.90;;;;;;;;;;4973965;28;20078;-70
2022/03/22 08:54:42;;;;;;;40.63;29.48;;;;;;;;;;4975900;28;20149;-70
2022/03/22 08:57:09;;;;;;;38.33;29.05;;;;;;;;;;4975699;28;20061;-70
2022/03/22 08:59:35;;;;;;;41.92;28.95;;;;;;;;;;4975721;28;20082;-70
2022/03/22 09:02:02;;;;;;;35.38;28.45;;;;;;;;;;4961560;28;20039;-70
2022/03/22 09:07:14;;;;;;;32.00;27.30;;;;;;;;;;4944899;29;20047;-70
2022/03/22 09:09:40;;;;;;;37.20;27.80;;;;;;;;;;4961851;28;20049;-70
2022/03/22 09:12:06;;;;;;;36.47;27.73;;;;;;;;;;4975149;28;20130;-69
2022/03/22 09:14:32;;;;;;;35.40;26.63;;;;;;;;;;4975770;28;20149;-69
2022/03/22 09:16:58;;;;;;;38.95;27.60;;;;;;;;;;4974867;28;20417;-70
2022/03/22 09:19:24;;;;;;;33.58;27.52;;;;;;;;;;4975391;28;20039;-70
2022/03/22 09:21:50;;;;;;;36.58;26.92;;;;;;;;;;4977321;28;20093;-70
2022/03/22 09:24:16;;;;;;;36.65;26.38;;;;;;;;;;4981974;28;20043;-70
2022/03/22 09:26:42;;;;;;;34.13;26.25;;;;;;;;;;4975539;28;20038;-69
2022/03/22 09:29:08;;;;;;;35.20;26.80;;;;;;;;;;4974067;28;20054;-70
2022/03/22 09:31:34;;;;;;;32.80;26.33;;;;;;;;;;4965536;28;20055;-69
2022/03/22 09:34:00;;;;;;;32.28;25.48;;;;;;;;;;4956151;28;20051;-69
2022/03/22 09:36:27;;;;;;;36.00;27.48;;;;;;;;;;4972525;28;20050;-71
2022/03/22 09:38:53;;;;;;;37.47;26.77;;;;;;;;;;4974621;28;20050;-69
2022/03/22 09:41:19;;;;;;;32.05;26.35;;;;;;;;;;4975057;28;20042;-70
2022/03/22 09:43:48;;;;;;;32.85;26.52;;;;;;;;;;4975056;28;20047;-69
2022/03/22 09:46:19;;;;;;;32.33;26.05;;;;;;;;;;4974913;28;20050;-70
2022/03/22 09:48:46;;;;;;;30.67;24.55;;;;;;;;;;4973349;28;20055;-71
2022/03/22 09:54:00;;;;;;;30.17;24.50;;;;;;;;;;4971657;28;20494;-71
2022/03/22 09:56:30;;;;;;;34.08;26.02;;;;;;;;;;4968658;28;20061;-71
2022/03/22 09:58:57;;;;;;;31.90;24.80;;;;;;;;;;4975200;28;20088;-71
2022/03/22 10:01:23;;;;;;;34.92;26.08;;;;;;;;;;4974835;28;20054;-70
2022/03/22 10:04:15;;;;;;;32.05;25.17;;;;;;;;;;4973678;28;20057;-70
2022/03/22 10:06:47;;;;;;;36.25;24.95;;;;;;;;;;4972872;28;20401;-70
2022/03/22 10:09:13;;;;;;;31.80;24.98;;;;;;;;;;4957389;28;20043;-70
2022/03/22 10:11:43;;;;;;;35.78;26.13;;;;;;;;;;4974883;28;20050;-70
2022/03/22 10:14:11;;;;;;;32.65;23.63;;;;;;;;;;4974431;28;20089;-71
2022/03/22 10:16:52;;;;;;;32.80;24.42;;;;;;;;;;4974520;28;20494;-70
2022/03/22 10:19:19;;;;;;;32.03;23.73;;;;;;;;;;4961238;28;20062;-70
2022/03/22 10:21:46;;;;;;;32.08;24.80;;;;;;;;;;4971262;28;20396;-70
2022/03/22 10:24:15;;;;;;;32.00;25.20;;;;;;;;;;4974651;28;20047;-71
2022/03/22 10:26:44;;;;;;;35.58;25.25;;;;;;;;;;4955370;28;20054;-71
2022/03/22 10:29:11;;;;;;;35.45;25.60;;;;;;;;;;4974626;28;20058;-71
2022/03/22 10:31:40;;;;;;;31.67;23.45;;;;;;;;;;4974137;28;20050;-71
2022/03/22 10:34:07;;;;;;;30.27;24.17;;;;;;;;;;4956135;28;20046;-71
2022/03/22 10:36:36;;;;;;;29.98;23.65;;;;;;;;;;4972396;28;20043;-71
2022/03/22 10:39:04;;;;;;;30.15;24.25;;;;;;;;;;4973065;28;20115;-71
2022/03/22 10:41:31;;;;;;;30.83;24.25;;;;;;;;;;4974175;28;20105;-69
2022/03/22 10:44:06;;;;;;;34.33;23.95;;;;;;;;;;4971611;28;20053;-69
2022/03/22 10:46:33;;;;;;;31.05;24.77;;;;;;;;;;4973505;28;20039;-70
2022/03/22 10:49:07;;;;;;;32.22;22.83;;;;;;;;;;4972696;28;20086;-71
2022/03/22 10:51:49;;;;;;;31.02;23.85;;;;;;;;;;4972345;28;20086;-70
2022/03/22 10:54:17;;;;;;;31.95;24.08;;;;;;;;;;4969007;28;20051;-71
2022/03/22 10:56:46;;;;;;;33.42;23.98;;;;;;;;;;4965220;28;20046;-70
2022/03/22 10:59:14;;;;;;;30.83;23.55;;;;;;;;;;4972263;28;20046;-70
2022/03/22 11:01:42;;;;;;;32.67;23.42;;;;;;;;;;4968040;28;20098;-71
2022/03/22 11:04:08;;;;;;;32.05;22.90;;;;;;;;;;4973932;28;20049;-70
2022/03/22 11:06:35;;;;;;;32.88;23.10;;;;;;;;;;4973590;28;20042;-70
2022/03/22 11:09:01;;;;;;;30.48;23.40;;;;;;;;;;4973622;28;20039;-70
2022/03/22 11:11:30;;;;;;;30.05;22.77;;;;;;;;;;4970344;28;20055;-70
2022/03/22 11:13:56;;;;;;;28.55;22.75;;;;;;;;;;4974015;28;20118;-69
2022/03/22 11:16:24;;;;;;;35.67;23.08;;;;;;;;;;4973620;28;20118;-70
2022/03/22 11:18:50;;;;;;;29.27;22.90;;;;;;;;;;4973962;28;20051;-69
2022/03/22 11:21:17;;;;;;;32.92;22.42;;;;;;;;;;4973448;28;20043;-70
2022/03/22 11:23:44;;;;;;;31.63;22.90;;;;;;;;;;4973121;28;20058;-69
2022/03/22 11:26:11;;;;;;;96.25;35.00;;;;;;;;;;4973217;28;20055;-69
2022/03/22 11:28:38;;;;;;;32.78;22.98;;;;;;;;;;4973655;28;20178;-69
2022/03/22 11:31:05;;;;;;;35.88;24.38;;;;;;;;;;4973407;28;20049;-69
2022/03/22 11:36:21;;;;;;;32.03;24.30;;;;;;;;;;4971599;28;20126;-70
2022/03/22 11:38:47;;;;;;;34.33;23.70;;;;;;;;;;4972386;28;20082;-70
2022/03/22 11:44:10;;;;;;;32.92;23.33;;;;;;;;;;4972120;28;20137;-70
2022/03/22 11:46:36;;;;;;;30.90;23.70;;;;;;;;;;4972100;28;20043;-70
2022/03/22 11:49:21;;;;;;;34.70;23.23;;;;;;;;;;4967915;28;20044;-70
2022/03/22 11:51:55;;;;;;;30.23;24.13;;;;;;;;;;4965249;28;20057;-70
2022/03/22 11:54:22;;;;;;;31.55;23.80;;;;;;;;;;4972746;28;20090;-70
2022/03/22 11:56:49;;;;;;;35.58;23.23;;;;;;;;;;4975809;28;20048;-70
2022/03/22 11:59:16;;;;;;;33.03;23.75;;;;;;;;;;4965399;28;20413;-70
2022/03/22 12:01:43;;;;;;;33.78;23.65;;;;;;;;;;4977210;28;20409;-70
2022/03/22 12:04:16;;;;;;;33.08;24.20;;;;;;;;;;4976921;28;20548;-71
2022/03/22 12:06:43;;;;;;;31.90;23.52;;;;;;;;;;4976811;28;20613;-71
2022/03/22 12:09:09;;;;;;;31.10;23.95;;;;;;;;;;4980363;28;20058;-71
2022/03/22 12:11:36;;;;;;;36.00;24.35;;;;;;;;;;4976571;28;20105;-70
2022/03/22 12:14:03;;;;;;;37.25;23.83;;;;;;;;;;4973774;28;20053;-70
2022/03/22 12:16:29;;;;;;;32.72;23.90;;;;;;;;;;4976357;28;20114;-70
2022/03/22 12:18:58;;;;;;;31.98;24.13;;;;;;;;;;4976289;28;20045;-70
2022/03/22 12:21:24;;;;;;;33.20;24.23;;;;;;;;;;4976279;28;20212;-70
2022/03/22 12:23:50;;;;;;;35.35;23.58;;;;;;;;;;4968771;28;20047;-69
2022/03/22 12:26:17;;;;;;;34.95;25.05;;;;;;;;;;4956917;29;20043;-70
2022/03/22 12:29:02;;;;;;;33.85;24.10;;;;;;;;;;4973686;28;20101;-69
2022/03/22 12:31:28;;;;;;;38.40;24.52;;;;;;;;;;4976499;28;20080;-70
2022/03/22 12:33:58;;;;;;;32.75;24.02;;;;;;;;;;4976074;28;20664;-69
2022/03/22 12:36:25;;;;;;;32.80;24.23;;;;;;;;;;4976181;28;20050;-70
2022/03/22 12:38:51;;;;;;;31.80;23.33;;;;;;;;;;4975936;28;20164;-71
2022/03/22 12:41:17;;;;;;;34.67;24.42;;;;;;;;;;4974341;28;20496;-71
2022/03/22 12:43:45;;;;;;;32.65;23.20;;;;;;;;;;4974718;28;20043;-69
2022/03/22 12:46:12;;;;;;;36.80;25.02;;;;;;;;;;4967151;28;20082;-70
2022/03/22 12:48:38;;;;;;;39.90;25.75;;;;;;;;;;4973545;28;20129;-70
2022/03/22 12:51:04;;;;;;;36.38;24.02;;;;;;;;;;4978126;28;20126;-70
2022/03/22 12:53:31;;;;;;;38.60;24.13;;;;;;;;;;4973326;28;20047;-70
2022/03/22 12:55:58;;;;;;;37.85;24.75;;;;;;;;;;4975586;28;20059;-70
2022/03/22 12:58:28;;;;;;;38.83;25.77;;;;;;;;;;4975331;28;20065;-70
2022/03/22 13:00:54;;;;;;;39.78;25.08;;;;;;;;;;4971023;28;20490;-70
2022/03/22 13:03:20;;;;;;;35.53;25.55;;;;;;;;;;4972575;28;20406;-70
2022/03/22 13:05:47;;;;;;;36.50;24.65;;;;;;;;;;4972983;28;20402;-69
2022/03/22 13:08:13;;;;;;;36.22;24.83;;;;;;;;;;4974978;28;20039;-70
2022/03/22 13:13:24;;;;;;;36.95;24.33;;;;;;;;;;4975460;28;20051;-70
2022/03/22 13:16:19;;;;;;;35.58;24.67;;;;;;;;;;4975017;28;20130;-70
2022/03/22 13:18:50;;;;;;;33.63;24.20;;;;;;;;;;4975476;28;20456;-70
2022/03/22 13:21:21;;;;;;;32.78;24.58;;;;;;;;;;4975267;28;20098;-70
2022/03/22 13:23:47;;;;;;;33.50;24.08;;;;;;;;;;4975340;28;20498;-70
2022/03/22 13:26:16;;;;;;;35.80;24.40;;;;;;;;;;4975283;28;20045;-70
2022/03/22 13:28:42;;;;;;;30.80;23.17;;;;;;;;;;4975505;28;20511;-70
2022/03/22 13:31:08;;;;;;;33.05;23.67;;;;;;;;;;4974773;28;20126;-70
2022/03/22 13:33:35;;;;;;;32.15;23.30;;;;;;;;;;4975125;28;20049;-70
2022/03/22 13:36:04;;;;;;;33.40;23.63;;;;;;;;;;4975138;28;20065;-70
2022/03/22 13:38:31;;;;;;;33.67;22.90;;;;;;;;;;4975359;28;20090;-70
2022/03/22 13:40:58;;;;;;;31.05;24.23;;;;;;;;;;4975099;28;20054;-71
2022/03/22 13:43:25;;;;;;;35.58;24.35;;;;;;;;;;4973791;28;20493;-70
2022/03/22 13:45:52;;;;;;;32.22;22.63;;;;;;;;;;4975097;28;20057;-70
2022/03/22 13:48:19;;;;;;;29.63;22.73;;;;;;;;;;4975163;28;20497;-71
2022/03/22 13:50:46;;;;;;;32.28;23.92;;;;;;;;;;4975046;28;20051;-71
2022/03/22 13:53:14;;;;;;;35.90;23.38;;;;;;;;;;4975338;28;20089;-71
2022/03/22 13:55:41;;;;;;;38.30;22.65;;;;;;;;;;4975190;28;20134;-70
2022/03/22 13:58:10;;;;;;;33.33;22.92;;;;;;;;;;4974789;28;20078;-70
2022/03/22 14:00:37;;;;;;;34.33;21.88;;;;;;;;;;4972726;28;20524;-71
2022/03/22 14:03:03;;;;;;;30.17;21.38;;;;;;;;;;4974460;28;20151;-71
2022/03/22 14:05:30;;;;;;;31.48;22.88;;;;;;;;;;4974245;28;20043;-71
2022/03/22 14:07:57;;;;;;;29.20;21.45;;;;;;;;;;4974724;28;20058;-71
2022/03/22 14:10:24;;;;;;;31.27;22.08;;;;;;;;;;4970069;28;20054;-71
2022/03/22 14:12:50;;;;;;;31.65;23.08;;;;;;;;;;4974271;28;20062;-71
2022/03/22 14:15:16;;;;;;;33.33;23.02;;;;;;;;;;4974555;28;20043;-71
2022/03/22 14:17:46;;;;;;;31.45;22.75;;;;;;;;;;4973120;28;20061;-71
2022/03/22 14:20:13;;;;;;;30.10;22.05;;;;;;;;;;4973959;28;20465;-71
2022/03/22 14:22:43;;;;;;;32.45;22.35;;;;;;;;;;4974180;28;20078;-71
2022/03/22 14:25:09;;;;;;;30.70;22.85;;;;;;;;;;4973225;28;20054;-71
2022/03/22 14:27:37;;;;;;;32.17;22.98;;;;;;;;;;4974284;28;20101;-71
2022/03/22 14:30:04;;;;;;;34.53;24.30;;;;;;;;;;4955827;28;20051;-71
2022/03/22 14:32:31;;;;;;;34.65;24.48;;;;;;;;;;4969286;28;20093;-71
2022/03/22 14:37:42;;;;;;;33.38;23.73;;;;;;;;;;4974231;28;20051;-71
2022/03/22 14:40:08;;;;;;;35.28;24.63;;;;;;;;;;4974038;28;20078;-70
2022/03/22 14:42:35;;;;;;;33.22;23.27;;;;;;;;;;4973786;28;20046;-70
2022/03/22 14:45:07;;;;;;;33.22;23.75;;;;;;;;;;4973005;28;20055;-71
2022/03/22 14:47:34;;;;;;;31.35;22.92;;;;;;;;;;4974096;28;20117;-70
2022/03/22 14:50:01;;;;;;;31.17;23.13;;;;;;;;;;4973530;28;20054;-71
2022/03/22 14:55:11;;;;;;;33.38;23.75;;;;;;;;;;4972370;28;20055;-72
2022/03/22 15:00:22;;;;;;;32.13;23.17;;;;;;;;;;4960336;28;20133;-71